Time;durP1;ratioP1;P1;durP2;ratioP2;P2;SDS_P1;SDS_P2;PMS_P1;PMS_P2;Temp;Humidity;BMP_temperature;BMP_pressure;BME280_temperature;BME280_humidity;BME280_pressure;Samples;Min_cycle;Max_cycle;Signal;HPM_P1;HPM_P2
2022/07/17 00:01:38;;;;;;;;;8.00;8.00;;;;;26.48;42.44;100915.69;146606;597;46018;-73
2022/07/17 00:04:31;;;;;;;;;9.00;8.75;;;;;26.34;42.49;100914.03;146603;577;46018;-72
2022/07/17 00:07:23;;;;;;;;;10.25;10.00;;;;;26.28;42.83;100928.25;146606;587;46010;-71
2022/07/17 00:10:16;;;;;;;;;8.50;8.50;;;;;26.19;43.38;100915.94;146607;595;45914;-73
2022/07/17 00:13:09;;;;;;;;;11.00;11.00;;;;;26.09;44.06;100919.59;146607;685;46026;-74
2022/07/17 00:16:01;;;;;;;;;9.25;9.25;;;;;25.99;42.84;100917.91;146606;608;46010;-74
2022/07/17 00:18:53;;;;;;;;;8.75;8.50;;;;;25.94;43.13;100917.06;146628;599;45018;-78
2022/07/17 00:21:45;;;;;;;;;8.75;8.00;;;;;25.90;42.34;100913.56;146622;599;46915;-73
2022/07/17 00:24:37;;;;;;;;;7.00;7.00;;;;;25.91;42.00;100912.66;146628;583;46010;-73
2022/07/17 00:27:29;;;;;;;;;9.50;9.50;;;;;25.95;41.97;100908.19;146623;580;45019;-75
2022/07/17 00:30:22;;;;;;;;;8.50;7.00;;;;;26.01;41.92;100905.47;146626;673;46008;-74
2022/07/17 00:33:14;;;;;;;;;9.00;9.00;;;;;26.11;41.64;100911.59;146628;577;45010;-71
2022/07/17 00:36:07;;;;;;;;;7.00;7.00;;;;;26.20;41.25;100904.41;146626;662;45018;-72
2022/07/17 00:38:59;;;;;;;;;6.75;6.75;;;;;26.25;41.91;100899.03;146628;695;45018;-74
2022/07/17 00:41:52;;;;;;;;;7.00;7.00;;;;;26.24;41.51;100903.47;146631;632;45010;-75
2022/07/17 00:44:45;;;;;;;;;10.25;9.00;;;;;26.22;42.25;100897.28;146625;682;45019;-78
2022/07/17 00:47:37;;;;;;;;;8.00;8.00;;;;;26.18;42.19;100898.22;146629;624;45018;-76
2022/07/17 00:50:35;;;;;;;;;8.75;8.00;;;;;26.15;42.05;100905.38;146625;576;47013;-71
2022/07/17 00:53:27;;;;;;;;;8.75;8.00;;;;;26.17;42.42;100906.25;146626;666;46010;-74
2022/07/17 00:56:22;;;;;;;;;7.50;6.25;;;;;26.17;42.15;100907.13;146627;611;45031;-73
2022/07/17 00:59:18;;;;;;;;;7.50;7.00;;;;;26.17;42.00;100906.25;146626;588;46009;-72
2022/07/17 01:02:12;;;;;;;;;8.50;8.50;;;;;26.16;42.53;100910.66;146629;570;44914;-72
2022/07/17 01:05:04;;;;;;;;;9.00;9.00;;;;;26.13;42.78;100907.13;146627;567;45011;-70
2022/07/17 01:07:57;;;;;;;;;9.00;9.00;;;;;26.06;42.54;100908.97;146627;634;45914;-69
2022/07/17 01:10:49;;;;;;;;;8.75;7.50;;;;;26.00;42.50;100909.91;146629;649;45018;-69
2022/07/17 01:13:41;;;;;;;;;7.75;7.75;;;;;25.93;42.67;100910.88;146625;612;45019;-73
2022/07/17 01:16:34;;;;;;;;;10.50;10.50;;;;;25.86;42.23;100911.84;146625;577;45018;-73
2022/07/17 01:19:27;;;;;;;;;8.25;8.25;;;;;25.79;42.92;100913.62;146606;565;46018;-77
2022/07/17 01:22:19;;;;;;;;;9.00;9.00;;;;;25.73;43.06;100913.69;146606;563;46018;-80
2022/07/17 01:25:12;;;;;;;;;9.00;8.25;;;;;25.67;43.68;100915.47;146603;580;46018;-75
2022/07/17 01:28:04;;;;;;;;;12.00;10.75;;;;;25.64;44.40;100908.44;146610;577;46008;-72
2022/07/17 01:30:56;;;;;;;;;14.25;11.50;;;;;25.53;46.56;100895.22;146604;655;46019;-73
2022/07/17 01:33:48;;;;;;;;;10.25;8.50;;;;;25.56;45.85;100907.59;146605;609;46018;-72
2022/07/17 01:36:41;;;;;;;;;12.50;11.75;;;;;25.55;46.52;100908.50;146604;603;46033;-73
2022/07/17 01:42:46;;;;;;;;;13.75;13.00;;;;;25.61;46.87;100896.94;146604;564;46912;-70
2022/07/17 01:45:38;;;;;;;;;12.00;10.00;;;;;25.58;47.20;100905.84;146605;569;47008;-69
2022/07/17 01:48:32;;;;;;;;;11.25;11.00;;;;;25.43;45.92;100888.22;146605;569;46018;-69
2022/07/17 01:51:24;;;;;;;;;10.50;10.50;;;;;25.46;45.83;100900.63;146604;683;46018;-70
2022/07/17 01:54:16;;;;;;;;;11.25;10.00;;;;;25.42;44.96;100902.41;146604;562;46018;-70
2022/07/17 01:57:08;;;;;;;;;12.00;11.50;;;;;25.44;45.39;100905.03;146604;594;47008;-71
2022/07/17 02:00:00;;;;;;;;;10.75;10.75;;;;;25.49;45.38;100905.91;146604;577;46018;-70
2022/07/17 02:02:52;;;;;;;;;11.00;11.00;;;;;25.49;44.96;100900.59;146606;564;47010;-73
2022/07/17 02:05:45;;;;;;;;;12.00;12.00;;;;;25.45;44.38;100901.47;146605;619;46019;-70
2022/07/17 02:08:37;;;;;;;;;12.50;10.75;;;;;25.42;44.26;100902.41;146605;646;47008;-69
2022/07/17 02:11:29;;;;;;;;;11.50;11.50;;;;;25.43;44.34;100904.16;146605;642;46018;-68
2022/07/17 02:14:22;;;;;;;;;12.75;11.50;;;;;25.45;44.75;100904.13;146604;655;47008;-70
2022/07/17 02:17:14;;;;;;;;;12.00;11.50;;;;;25.43;44.88;100906.81;146603;602;47012;-68
2022/07/17 02:20:07;;;;;;;;;12.50;11.25;;;;;25.44;45.14;100905.91;146604;610;47008;-71
2022/07/17 02:22:59;;;;;;;;;11.00;10.25;;;;;25.45;44.94;100905.03;146604;569;46010;-72
2022/07/17 02:25:52;;;;;;;;;12.50;11.00;;;;;25.44;45.28;100905.03;146606;581;46024;-72
2022/07/17 02:28:43;;;;;;;;;15.75;10.75;;;;;25.44;46.18;100907.69;146605;647;46010;-68
2022/07/17 02:31:36;;;;;;;;;12.00;12.00;;;;;25.38;45.52;100905.97;146605;594;46008;-68
2022/07/17 02:34:27;;;;;;;;;10.25;10.25;;;;;25.32;45.40;100909.53;146603;596;46018;-68
2022/07/17 02:37:20;;;;;;;;;11.00;11.00;;;;;25.27;45.56;100915.78;146606;628;46008;-69
2022/07/17 02:40:13;;;;;;;;;13.00;11.50;;;;;25.21;45.16;100916.69;146604;569;46018;-68
2022/07/17 02:43:05;;;;;;;;;10.50;10.50;;;;;25.22;45.60;100921.09;146610;564;45019;-67
2022/07/17 02:45:57;;;;;;;;;11.50;9.75;;;;;25.23;44.95;100916.66;146603;565;46018;-70
2022/07/17 02:48:50;;;;;;;;;10.50;9.50;;;;;25.24;45.22;100921.97;146604;664;46018;-72
2022/07/17 02:51:41;;;;;;;;;11.75;11.75;;;;;25.27;45.18;100919.31;146604;686;46018;-72
2022/07/17 02:54:33;;;;;;;;;16.25;13.75;;;;;25.29;45.79;100922.81;146609;611;46008;-73
2022/07/17 02:57:26;;;;;;;;;16.00;15.00;;;;;25.25;47.08;100925.50;146603;588;46018;-72
2022/07/17 03:00:20;;;;;;;;;15.25;13.75;;;;;25.21;46.19;100932.63;146605;587;46018;-66
2022/07/17 03:03:12;;;;;;;;;17.25;15.75;;;;;25.20;46.43;100925.53;146604;578;46010;-66
2022/07/17 03:06:04;;;;;;;;;14.50;14.50;;;;;25.23;46.44;100933.47;146608;643;46008;-67
2022/07/17 03:08:56;;;;;;;;;14.00;14.00;;;;;25.28;46.33;100937.00;146603;624;46914;-71
2022/07/17 03:11:48;;;;;;;;;14.00;13.00;;;;;25.34;46.96;100936.06;146603;589;47916;-74
2022/07/17 03:14:40;;;;;;;;;15.75;13.50;;;;;25.34;47.31;100941.38;146603;607;46012;-74
2022/07/17 03:17:32;;;;;;;;;14.00;12.75;;;;;25.28;47.45;100934.34;146603;680;47008;-74
2022/07/17 03:20:25;;;;;;;;;12.25;11.75;;;;;25.23;46.36;100944.09;146603;566;47012;-70
2022/07/17 03:23:17;;;;;;;;;14.00;11.50;;;;;25.21;46.64;100940.56;146607;600;46018;-71
2022/07/17 03:26:09;;;;;;;;;11.25;11.25;;;;;25.18;46.74;100937.94;146604;576;46018;-69
2022/07/17 03:29:01;;;;;;;;;12.00;10.75;;;;;25.17;46.43;100946.81;146607;570;46019;-72
2022/07/17 03:31:54;;;;;;;;;12.50;12.00;;;;;25.16;46.76;100949.44;146605;566;46914;-73
2022/07/17 03:34:46;;;;;;;;;10.50;10.50;;;;;25.14;47.02;100946.81;146607;573;45916;-70
2022/07/17 03:37:38;;;;;;;;;13.50;11.00;;;;;25.11;47.08;100941.50;146606;652;46010;-71
2022/07/17 03:40:31;;;;;;;;;11.75;11.00;;;;;25.02;46.71;100953.03;146607;563;46018;-73
2022/07/17 03:43:22;;;;;;;;;13.00;11.25;;;;;24.96;47.20;100946.88;146606;578;46010;-70
2022/07/17 03:46:15;;;;;;;;;10.50;10.50;;;;;24.87;47.07;100948.66;146603;582;46018;-69
2022/07/17 03:49:07;;;;;;;;;2.50;2.25;;;;;24.86;47.58;100956.63;146607;667;46019;-71
2022/07/17 03:51:59;;;;;;;;;10.00;10.00;;;;;24.84;48.22;100956.63;146608;702;46018;-71
2022/07/17 03:54:51;;;;;;;;;12.50;11.00;;;;;24.79;47.55;100960.19;146604;667;46018;-72
2022/07/17 03:57:43;;;;;;;;;12.50;11.50;;;;;24.75;47.39;100954.00;146608;610;46008;-71
2022/07/17 04:00:35;;;;;;;;;10.75;9.25;;;;;24.70;47.23;100947.81;146602;570;46018;-73
2022/07/17 04:03:28;;;;;;;;;12.50;12.50;;;;;24.71;47.47;100957.56;146606;570;46018;-73
2022/07/17 04:06:20;;;;;;;;;11.25;11.25;;;;;24.70;48.25;100960.19;146606;586;46010;-72
2022/07/17 04:09:12;;;;;;;;;12.75;12.75;;;;;24.68;48.61;100957.56;146605;632;47008;-72
2022/07/17 04:12:05;;;;;;;;;11.75;10.50;;;;;24.68;49.50;100962.00;146603;614;46914;-72
2022/07/17 04:14:57;;;;;;;;;12.00;11.25;;;;;24.63;48.59;100957.56;146607;592;46008;-74
2022/07/17 04:17:49;;;;;;;;;12.00;12.00;;;;;24.67;49.41;100963.75;146606;610;45018;-73
2022/07/17 04:20:42;;;;;;;;;13.25;12.75;;;;;24.74;49.32;100964.62;146601;638;47008;-72
2022/07/17 04:23:34;;;;;;;;;13.25;11.50;;;;;24.81;49.18;100972.56;146605;580;46018;-70
2022/07/17 04:26:26;;;;;;;;;11.25;10.75;;;;;24.95;49.82;100974.25;146606;600;46030;-68
2022/07/17 04:29:18;;;;;;;;;11.25;10.50;;;;;25.03;48.84;100973.34;146601;683;46018;-70
2022/07/17 04:32:11;;;;;;;;;13.75;11.25;;;;;25.19;48.30;100974.19;146602;593;46018;-70
2022/07/17 04:35:05;;;;;;;;;12.50;12.50;;;;;25.42;48.53;100979.41;146606;605;46010;-68
2022/07/17 04:37:57;;;;;;;;;12.50;11.75;;;;;25.68;47.53;100981.88;146602;564;47008;-68
2022/07/17 04:40:49;;;;;;;;;11.00;10.50;;;;;25.94;47.70;100979.03;146606;583;45019;-68
2022/07/17 04:43:41;;;;;;;;;11.00;10.00;;;;;26.17;47.74;100980.66;146607;595;46027;-68
2022/07/17 04:46:33;;;;;;;;;11.25;10.00;;;;;26.34;47.60;100986.69;146604;617;46018;-71
2022/07/17 04:49:25;;;;;;;;;12.75;12.50;;;;;26.55;48.13;100984.75;146605;614;46019;-71
2022/07/17 04:52:18;;;;;;;;;9.25;9.25;;;;;26.69;46.86;100991.66;146607;574;45018;-80
2022/07/17 04:55:10;;;;;;;;;15.00;12.25;;;;;26.87;45.46;100987.03;146608;696;46018;-75
2022/07/17 04:58:03;;;;;;;;;10.00;9.75;;;;;27.07;46.60;100993.00;146605;626;47012;-73
2022/07/17 05:00:56;;;;;;;;;12.75;12.75;;;;;27.28;44.45;100993.66;146609;565;46008;-68
2022/07/17 05:03:48;;;;;;;;;15.00;13.25;;;;;27.48;44.24;100993.41;146605;596;45019;-68
2022/07/17 05:06:40;;;;;;;;;13.00;12.75;;;;;27.66;43.00;100997.56;146606;656;46018;-69
2022/07/17 05:09:33;;;;;;;;;13.25;13.25;;;;;27.84;42.66;100998.19;146605;581;46018;-70
2022/07/17 05:12:25;;;;;;;;;11.75;11.75;;;;;28.02;43.36;101004.13;146606;595;46010;-69
2022/07/17 05:15:17;;;;;;;;;11.75;11.75;;;;;28.20;42.93;100998.50;146605;575;46045;-69
2022/07/17 05:18:09;;;;;;;;;14.50;12.25;;;;;28.42;42.68;100999.03;146605;634;46019;-67
2022/07/17 05:21:02;;;;;;;;;15.00;13.75;;;;;28.63;41.10;100999.53;146602;565;46018;-67
2022/07/17 05:23:54;;;;;;;;;9.75;9.50;;;;;28.81;41.32;100995.63;146606;602;46018;-69
2022/07/17 05:26:46;;;;;;;;;14.00;12.50;;;;;28.95;40.34;101006.91;146605;582;46019;-68
2022/07/17 05:29:39;;;;;;;;;13.25;12.00;;;;;29.08;40.97;100999.56;146606;581;46018;-69
2022/07/17 05:32:30;;;;;;;;;12.75;12.25;;;;;29.25;40.26;101005.41;146606;575;46013;-69
2022/07/17 05:35:23;;;;;;;;;12.50;12.50;;;;;29.42;39.55;100997.91;146609;604;46008;-69
2022/07/17 05:38:15;;;;;;;;;9.75;8.75;;;;;29.55;40.04;101006.53;146604;636;46018;-69
2022/07/17 05:41:08;;;;;;;;;12.00;10.00;;;;;29.71;39.89;101001.75;146605;580;46019;-69
2022/07/17 05:44:00;;;;;;;;;17.25;15.00;;;;;29.82;38.06;101013.06;146606;579;45914;-70
2022/07/17 05:46:52;;;;;;;;;11.00;11.00;;;;;29.85;39.08;101009.44;146607;660;46026;-69
2022/07/17 05:49:44;;;;;;;;;15.00;15.00;;;;;29.90;38.19;101016.41;146603;572;46019;-70
2022/07/17 05:52:37;;;;;;;;;12.00;12.00;;;;;30.01;38.44;101013.50;146608;586;46008;-70
2022/07/17 05:55:29;;;;;;;;;14.75;14.50;;;;;30.12;37.53;101019.44;146605;604;46012;-70
2022/07/17 05:58:21;;;;;;;;;16.50;15.50;;;;;30.20;38.11;101018.41;146606;600;46018;-70
2022/07/17 06:01:13;;;;;;;;;14.75;14.75;;;;;30.29;36.97;101016.37;146603;601;46914;-70
2022/07/17 06:04:06;;;;;;;;;13.50;13.25;;;;;30.35;37.54;101020.69;146608;686;46008;-71
2022/07/17 06:06:58;;;;;;;;;15.75;15.00;;;;;30.43;38.02;101017.81;146606;616;46010;-73
2022/07/17 06:09:50;;;;;;;;;17.75;17.50;;;;;30.55;37.93;101020.16;146605;571;46008;-72
2022/07/17 06:12:42;;;;;;;;;13.25;13.25;;;;;30.63;37.67;101020.84;146605;571;46018;-71
2022/07/17 06:15:35;;;;;;;;;17.50;15.75;;;;;30.75;37.30;101028.53;146606;748;46018;-69
2022/07/17 06:18:27;;;;;;;;;14.50;13.75;;;;;30.89;37.85;101033.53;146604;603;46029;-70
2022/07/17 06:21:19;;;;;;;;;16.25;15.75;;;;;31.10;37.37;101029.38;146606;619;46018;-69
2022/07/17 06:24:11;;;;;;;;;13.50;13.25;;;;;31.30;37.88;101026.97;146604;564;46018;-69
2022/07/17 06:27:04;;;;;;;;;11.50;11.00;;;;;31.46;37.17;101018.50;146605;629;46019;-72
2022/07/17 06:29:57;;;;;;;;;15.25;14.25;;;;;31.63;35.84;101031.38;146607;580;45018;-67
2022/07/17 06:32:49;;;;;;;;;16.50;15.25;;;;;31.74;35.37;101029.22;146607;590;46008;-72
2022/07/17 06:35:41;;;;;;;;;14.00;14.00;;;;;31.83;36.68;101030.75;146604;612;46018;-70
2022/07/17 06:38:33;;;;;;;;;17.50;15.25;;;;;31.98;36.49;101032.97;146605;603;46018;-69
2022/07/17 06:41:25;;;;;;;;;14.75;14.75;;;;;32.10;36.42;101034.38;146605;618;46010;-70
2022/07/17 06:44:18;;;;;;;;;25.25;21.25;;;;;32.14;36.19;101033.34;146608;601;46008;-69
2022/07/17 06:47:16;;;;;;;;;21.00;17.75;;;;;31.19;38.54;100865.69;146605;595;46011;-70
2022/07/17 06:50:10;;;;;;;;;16.50;14.75;;;;;32.27;38.32;101031.97;146607;591;46008;-68
2022/07/17 06:53:02;;;;;;;;;14.00;13.25;;;;;32.40;36.04;101030.66;146606;566;46010;-70
2022/07/17 06:55:54;;;;;;;;;14.50;13.50;;;;;32.50;35.78;101036.59;146606;607;46018;-71
2022/07/17 06:58:46;;;;;;;;;16.00;14.75;;;;;32.60;35.47;101029.09;146605;606;46018;-72
2022/07/17 07:01:41;;;;;;;;;13.50;12.75;;;;;32.56;35.75;101035.53;146605;590;47008;-71
2022/07/17 07:04:33;;;;;;;;;12.25;11.00;;;;;32.51;35.79;101041.03;146604;617;46018;-70
2022/07/17 07:07:26;;;;;;;;;12.50;11.75;;;;;32.39;35.64;101036.06;146607;569;46008;-70
2022/07/17 07:10:19;;;;;;;;;16.75;15.00;;;;;32.24;36.22;101034.75;146605;653;46011;-69
2022/07/17 07:13:12;;;;;;;;;12.25;11.75;;;;;32.17;37.41;101041.28;146607;598;46008;-69
2022/07/17 07:16:04;;;;;;;;;11.50;11.50;;;;;32.14;38.47;101044.06;146604;570;47010;-70
2022/07/17 07:18:56;;;;;;;;;14.25;12.75;;;;;32.18;39.84;101043.03;146626;663;45017;-71
2022/07/17 07:21:48;;;;;;;;;16.75;16.00;;;;;32.21;41.57;101045.59;146623;583;46010;-70
2022/07/17 07:24:40;;;;;;;;;14.75;14.75;;;;;32.19;41.09;101042.12;146624;570;45019;-69
2022/07/17 07:27:33;;;;;;;;;11.25;11.00;;;;;32.23;40.81;101048.25;146624;582;46012;-70
2022/07/17 07:30:25;;;;;;;;;18.00;16.25;;;;;32.29;40.66;101053.41;146627;628;45010;-69
2022/07/17 07:33:17;;;;;;;;;15.00;14.75;;;;;32.39;41.99;101050.34;146625;589;45915;-68
2022/07/17 07:36:10;;;;;;;;;15.00;13.50;;;;;31.48;41.75;100863.91;146626;661;46008;-68
2022/07/17 07:39:02;;;;;;;;;15.25;15.25;;;;;32.75;40.58;101057.22;146625;576;45019;-76
2022/07/17 07:41:54;;;;;;;;;13.75;13.50;;;;;32.85;40.33;101056.81;146628;591;45018;-71
2022/07/17 07:44:46;;;;;;;;;15.50;15.00;;;;;32.96;40.18;101056.44;146629;570;44914;-71
2022/07/17 07:47:50;;;;;;;;;13.25;13.00;;;;;33.01;39.21;101057.16;146628;567;45023;-70
2022/07/17 07:50:42;;;;;;;;;14.25;14.25;;;;;33.05;40.85;101064.19;146624;604;45018;-70
2022/07/17 07:53:34;;;;;;;;;13.00;13.00;;;;;33.15;38.79;101059.38;146630;605;45030;-71
2022/07/17 07:56:29;;;;;;;;;14.75;14.00;;;;;32.29;40.40;100924.63;146628;600;45018;-72
2022/07/17 07:59:21;;;;;;;;;13.00;13.00;;;;;33.20;40.05;101078.00;146627;563;45018;-72
2022/07/17 08:02:14;;;;;;;;;14.50;14.50;;;;;33.27;39.83;101076.81;146623;674;46012;-70
2022/07/17 08:05:06;;;;;;;;;15.00;14.25;;;;;33.34;40.09;101081.91;146628;670;45010;-72
2022/07/17 08:07:59;;;;;;;;;14.25;13.25;;;;;33.43;40.22;101079.78;146623;612;45013;-70
2022/07/17 08:10:51;;;;;;;;;13.50;12.75;;;;;33.42;40.65;101089.66;146629;615;45010;-70
2022/07/17 08:13:43;;;;;;;;;15.00;14.25;;;;;33.18;40.01;101090.59;146627;617;45010;-71
2022/07/17 08:16:35;;;;;;;;;13.00;12.50;;;;;32.99;40.10;101095.75;146627;581;46010;-70
2022/07/17 08:19:30;;;;;;;;;14.00;11.50;;;;;32.99;39.51;101093.97;146603;597;46029;-72
2022/07/17 08:22:22;;;;;;;;;14.75;13.75;;;;;33.06;38.01;101100.00;146606;594;47008;-71
2022/07/17 08:25:15;;;;;;;;;14.75;14.75;;;;;33.18;36.86;101096.88;146602;564;47012;-72
2022/07/17 08:28:09;;;;;;;;;15.00;15.00;;;;;33.31;35.69;101108.03;146607;584;46018;-72
2022/07/17 08:31:06;;;;;;;;;12.75;12.75;;;;;33.32;35.13;101104.41;146605;588;46018;-72
2022/07/17 08:33:59;;;;;;;;;15.75;15.25;;;;;33.30;34.60;101114.31;146604;575;46018;-71
2022/07/17 08:36:51;;;;;;;;;15.75;14.75;;;;;33.32;35.28;101107.09;146606;682;46018;-73
2022/07/17 08:39:44;;;;;;;;;13.75;12.75;;;;;33.43;33.55;101106.66;146607;564;46018;-69
2022/07/17 08:42:42;;;;;;;;;10.00;9.75;;;;;33.55;35.02;101115.22;146605;572;46012;-72
2022/07/17 08:45:35;;;;;;;;;16.25;16.00;;;;;33.65;34.10;101113.03;146607;619;46008;-70
2022/07/17 08:48:31;;;;;;;;;11.00;10.75;;;;;33.75;33.32;101122.50;146605;570;46913;-70
2022/07/17 08:51:27;;;;;;;;;11.50;10.25;;;;;33.81;33.83;101121.37;146608;695;46008;-71
2022/07/17 08:54:22;;;;;;;;;11.00;11.00;;;;;33.90;31.43;101121.03;146604;577;46010;-71
2022/07/17 08:57:14;;;;;;;;;12.75;12.75;;;;;33.98;32.13;101115.31;146606;613;46008;-72
2022/07/17 09:00:07;;;;;;;;;10.00;10.00;;;;;34.03;32.43;101121.44;146602;616;46019;-72
2022/07/17 09:03:05;;;;;;;;;13.00;12.00;;;;;34.10;33.05;101117.56;146605;642;46018;-70
2022/07/17 09:05:57;;;;;;;;;13.25;12.25;;;;;34.24;32.92;101119.69;146606;579;46026;-70
2022/07/17 09:08:50;;;;;;;;;13.00;12.50;;;;;34.44;33.07;101122.41;146607;627;46018;-70
2022/07/17 09:11:55;;;;;;;;;9.00;9.00;;;;;34.67;33.48;101117.91;146607;621;46010;-69
2022/07/17 09:14:47;;;;;;;;;11.00;10.00;;;;;34.82;31.93;101117.22;146607;604;46018;-70
2022/07/17 09:17:40;;;;;;;;;11.50;11.25;;;;;34.92;32.70;101118.59;146603;570;46019;-72
2022/07/17 09:20:32;;;;;;;;;9.00;9.00;;;;;34.94;33.06;101108.63;146608;580;46018;-71
2022/07/17 09:23:26;;;;;;;;;12.50;12.50;;;;;34.02;33.22;100975.28;146604;592;47018;-70
2022/07/17 09:26:20;;;;;;;;;10.25;10.00;;;;;34.83;32.95;101110.94;146606;569;46018;-70
2022/07/17 09:29:15;;;;;;;;;10.50;10.50;;;;;34.78;33.73;101112.94;146600;581;47914;-72
2022/07/17 09:32:21;;;;;;;;;13.00;11.75;;;;;34.76;33.80;101117.50;146603;625;46019;-70
2022/07/17 09:35:16;;;;;;;;;13.25;12.75;;;;;34.78;34.77;101112.94;146605;633;46027;-70
2022/07/17 09:38:08;;;;;;;;;13.50;11.75;;;;;34.76;33.76;101114.81;146609;595;46019;-71
2022/07/17 09:41:20;;;;;;;;;12.50;11.75;;;;;34.74;35.57;101116.72;146603;596;46018;-70
2022/07/17 09:44:12;;;;;;;;;13.50;13.25;;;;;34.67;36.78;101116.09;146607;564;46011;-69
2022/07/17 09:47:06;;;;;;;;;13.50;12.00;;;;;34.57;36.54;101113.84;146605;591;47012;-70
2022/07/17 09:49:59;;;;;;;;;13.00;12.50;;;;;34.12;36.37;101047.53;146607;607;45024;-72
2022/07/17 09:52:56;;;;;;;;;11.75;11.75;;;;;34.45;37.46;101109.81;146604;659;46018;-70
2022/07/17 09:55:49;;;;;;;;;14.25;13.00;;;;;34.42;37.61;101109.97;146607;594;46034;-70
2022/07/17 09:58:46;;;;;;;;;14.25;14.25;;;;;34.37;37.44;101118.25;146604;577;46018;-71
2022/07/17 10:01:40;;;;;;;;;15.50;13.50;;;;;34.30;38.41;101105.09;146605;586;46019;-71
2022/07/17 10:04:32;;;;;;;;;15.25;13.25;;;;;34.21;38.55;101109.94;146606;565;46010;-72
2022/07/17 10:07:25;;;;;;;;;13.25;13.25;;;;;34.10;37.89;101106.78;146607;564;46018;-72
2022/07/17 10:10:20;;;;;;;;;14.00;14.00;;;;;34.09;38.35;101107.75;146605;594;46018;-72
2022/07/17 10:13:15;;;;;;;;;12.50;12.25;;;;;34.08;38.09;101108.66;146605;586;46021;-71
2022/07/17 10:16:08;;;;;;;;;14.75;14.25;;;;;34.08;39.88;101099.72;146605;587;46010;-71
2022/07/17 10:19:02;;;;;;;;;14.75;14.75;;;;;34.08;39.27;101105.97;146630;577;45010;-72
2022/07/17 10:22:08;;;;;;;;;12.50;12.50;;;;;34.18;37.92;101096.59;146627;574;45019;-71
2022/07/17 10:25:07;;;;;;;;;14.00;13.75;;;;;34.31;37.98;101099.66;146628;563;44916;-72
2022/07/17 10:28:00;;;;;;;;;12.25;12.25;;;;;34.40;36.45;101101.09;146619;615;48915;-72
2022/07/17 10:30:53;;;;;;;;;12.50;11.50;;;;;34.44;38.37;101092.81;146629;611;46010;-72
2022/07/17 10:33:45;;;;;;;;;14.25;13.25;;;;;34.31;39.67;101110.41;146626;577;45010;-71
2022/07/17 10:36:47;;;;;;;;;13.50;13.50;;;;;34.06;39.10;101102.47;146630;619;45018;-71
2022/07/17 10:39:39;;;;;;;;;15.50;15.00;;;;;33.80;41.79;101107.06;146628;653;45021;-72
2022/07/17 10:43:06;;;;;;;;;17.25;16.00;;;;;33.63;41.21;101092.50;146628;599;45916;-73
2022/07/17 10:45:58;;;;;;;;;12.50;12.50;;;;;33.59;43.29;101104.34;146625;564;45018;-71
2022/07/17 10:48:54;;;;;;;;;17.00;15.50;;;;;33.64;41.66;101100.50;146630;579;45010;-72
2022/07/17 10:51:46;;;;;;;;;16.00;14.50;;;;;33.73;41.00;101091.22;146621;571;46915;-72
2022/07/17 10:54:38;;;;;;;;;12.00;12.00;;;;;33.79;41.15;101102.59;146628;569;45916;-73
2022/07/17 10:57:30;;;;;;;;;15.50;15.50;;;;;33.91;40.37;101092.31;146625;564;45915;-73
2022/07/17 11:00:23;;;;;;;;;16.25;15.25;;;;;34.05;40.97;101098.00;146626;614;46018;-73
2022/07/17 11:03:16;;;;;;;;;17.50;15.75;;;;;34.14;41.91;101092.25;146627;609;45010;-72
2022/07/17 11:06:18;;;;;;;;;14.75;14.75;;;;;34.10;38.81;101096.03;146630;579;45010;-74
2022/07/17 11:09:16;;;;;;;;;16.25;16.25;;;;;34.12;39.70;101096.84;146629;583;45012;-73
2022/07/17 11:12:08;;;;;;;;;17.50;14.00;;;;;34.19;39.78;101084.00;146629;569;45018;-74
2022/07/17 11:15:08;;;;;;;;;15.00;14.75;;;;;34.25;38.95;101095.41;146626;611;45915;-72
2022/07/17 11:18:00;;;;;;;;;15.00;15.00;;;;;34.23;38.53;101091.88;146613;564;46010;-73
2022/07/17 11:20:59;;;;;;;;;17.75;16.00;;;;;34.17;38.84;101083.19;146604;644;46914;-72
2022/07/17 11:23:57;;;;;;;;;16.25;15.25;;;;;34.20;38.65;101085.75;146605;565;46018;-72
2022/07/17 11:26:54;;;;;;;;;14.75;14.75;;;;;34.33;38.99;101088.81;146606;569;45018;-71
2022/07/17 11:29:46;;;;;;;;;14.00;13.00;;;;;34.40;38.41;101084.94;146605;581;46010;-73
2022/07/17 11:32:40;;;;;;;;;16.25;15.00;;;;;34.43;38.16;101088.37;146603;577;46914;-71
2022/07/17 11:35:32;;;;;;;;;17.00;16.00;;;;;34.45;37.79;101082.91;146605;586;47008;-72
2022/07/17 11:38:32;;;;;;;;;14.75;13.25;;;;;34.47;37.29;101079.22;146603;587;46914;-73
2022/07/17 11:41:24;;;;;;;;;16.00;14.00;;;;;34.46;36.91;101080.16;146607;568;46018;-73
2022/07/17 11:44:20;;;;;;;;;16.75;15.75;;;;;34.49;37.30;101080.03;146606;680;45914;-71
2022/07/17 11:47:13;;;;;;;;;12.50;12.50;;;;;34.61;36.32;101078.66;146606;595;46018;-72
2022/07/17 11:50:14;;;;;;;;;15.50;15.50;;;;;34.64;36.04;101074.94;146607;599;45019;-72
2022/07/17 11:53:09;;;;;;;;;16.25;14.50;;;;;34.65;35.53;101068.63;146606;592;46018;-72
2022/07/17 11:56:01;;;;;;;;;14.25;14.00;;;;;34.64;36.11;101075.84;146604;574;46010;-72
2022/07/17 11:58:53;;;;;;;;;14.00;12.25;;;;;34.68;35.42;101074.75;146606;594;46010;-71
2022/07/17 12:01:49;;;;;;;;;12.50;12.50;;;;;34.78;34.79;101080.59;146604;578;46018;-71
2022/07/17 12:04:59;;;;;;;;;14.75;14.75;;;;;34.74;35.10;101086.19;146607;613;47018;-71
2022/07/17 12:07:51;;;;;;;;;14.25;13.75;;;;;34.70;34.95;101083.63;146603;563;46018;-72
2022/07/17 12:10:47;;;;;;;;;16.00;16.00;;;;;34.72;36.58;101075.50;146608;700;46018;-71
2022/07/17 12:13:50;;;;;;;;;14.00;14.00;;;;;34.77;36.90;101073.47;146604;594;46027;-70
2022/07/17 12:16:42;;;;;;;;;13.00;12.50;;;;;34.75;35.79;101074.50;146608;724;46018;-71
2022/07/17 12:19:35;;;;;;;;;11.75;11.50;;;;;34.72;35.44;101079.06;146605;576;46023;-71
2022/07/17 12:22:28;;;;;;;;;15.75;15.75;;;;;34.78;36.40;101079.75;146607;720;46008;-72
2022/07/17 12:25:32;;;;;;;;;12.00;12.00;;;;;34.81;35.99;101080.47;146605;565;46010;-71
2022/07/17 12:28:24;;;;;;;;;16.25;15.00;;;;;34.88;35.70;101081.94;146602;566;46019;-71
2022/07/17 12:31:17;;;;;;;;;12.75;12.75;;;;;34.89;34.99;101064.84;146603;583;46018;-73
2022/07/17 12:34:09;;;;;;;;;15.00;15.00;;;;;34.86;34.59;101074.88;146606;646;46018;-73
2022/07/17 12:37:01;;;;;;;;;16.25;14.50;;;;;34.83;34.30;101070.50;146605;592;46019;-71
2022/07/17 12:39:55;;;;;;;;;13.00;12.75;;;;;34.77;34.51;101068.09;146606;609;47010;-71
2022/07/17 12:42:47;;;;;;;;;14.00;13.50;;;;;34.76;35.10;101060.94;146623;711;47018;-73
2022/07/17 12:45:40;;;;;;;;;13.25;12.75;;;;;34.80;33.77;101067.06;146610;587;46008;-70
2022/07/17 12:48:32;;;;;;;;;14.50;13.50;;;;;34.80;34.42;101062.56;146605;584;46018;-71
2022/07/17 12:51:24;;;;;;;;;13.25;12.00;;;;;34.81;34.72;101056.22;146605;581;46008;-72
2022/07/17 12:54:16;;;;;;;;;10.50;10.50;;;;;34.80;33.40;101053.59;146604;577;46026;-71
2022/07/17 12:57:14;;;;;;;;;16.00;14.00;;;;;34.76;33.80;101052.84;146607;574;46008;-76
2022/07/17 13:00:07;;;;;;;;;10.75;10.50;;;;;34.77;35.20;101042.94;146605;584;46018;-73
2022/07/17 13:02:59;;;;;;;;;15.75;15.75;;;;;34.79;34.06;101050.03;146606;616;46008;-68
2022/07/17 13:05:51;;;;;;;;;12.50;12.50;;;;;34.83;33.48;101043.56;146603;704;47010;-71
2022/07/17 13:08:43;;;;;;;;;16.75;15.75;;;;;34.85;33.88;101043.50;146607;595;46018;-71
2022/07/17 13:11:36;;;;;;;;;15.50;15.50;;;;;34.87;34.44;101045.19;146605;567;46019;-69
2022/07/17 13:14:28;;;;;;;;;15.00;14.00;;;;;34.93;34.55;101052.97;146607;565;46008;-71